Time;durP1;ratioP1;P1;durP2;ratioP2;P2;SDS_P1;SDS_P2;PMS_P1;PMS_P2;Temp;Humidity;BMP_temperature;BMP_pressure;BME280_temperature;BME280_humidity;BME280_pressure;Samples;Min_cycle;Max_cycle;Signal;HPM_P1;HPM_P2
2021/10/31 00:01:16;;;;;;;30.80;21.67;;;;;;;10.17;100.00;95953.97;5002155;28;20106;-60
2021/10/31 00:03:45;;;;;;;32.47;21.13;;;;;;;9.64;100.00;95956.69;5004657;28;20582;-57
2021/10/31 00:06:13;;;;;;;32.30;21.92;;;;;;;9.82;100.00;95961.94;5008660;28;20112;-59
2021/10/31 00:08:43;;;;;;;31.77;22.73;;;;;;;10.62;100.00;95957.38;4999526;28;20073;-58
2021/10/31 00:11:12;;;;;;;32.05;22.83;;;;;;;10.93;100.00;95953.25;5005994;28;20081;-58
2021/10/31 00:13:40;;;;;;;31.90;23.67;;;;;;;10.84;100.00;95956.00;5003424;28;20077;-61
2021/10/31 00:16:09;;;;;;;32.83;22.42;;;;;;;10.33;100.00;95947.19;5002878;28;20062;-62
2021/10/31 00:18:37;;;;;;;30.88;22.98;;;;;;;10.02;100.00;95944.97;5000117;28;20571;-59
2021/10/31 00:21:06;;;;;;;34.67;23.27;;;;;;;10.54;100.00;95947.63;5008855;28;20077;-60
2021/10/31 00:23:34;;;;;;;36.20;23.73;;;;;;;10.63;100.00;95965.16;5006183;28;20181;-60
2021/10/31 00:26:04;;;;;;;35.05;24.60;;;;;;;10.97;100.00;95961.66;4999777;28;20070;-58
2021/10/31 00:28:33;;;;;;;32.05;23.98;;;;;;;10.91;100.00;95975.50;5006668;28;20097;-60
2021/10/31 00:31:01;;;;;;;29.10;20.40;;;;;;;10.15;100.00;95992.84;5006715;28;20089;-61
2021/10/31 00:33:45;;;;;;;30.10;21.13;;;;;;;10.31;100.00;95981.59;4990721;28;20100;-61
2021/10/31 00:36:14;;;;;;;30.40;20.75;;;;;;;9.84;100.00;96021.38;5005532;28;20089;-61
2021/10/31 00:38:42;;;;;;;29.50;20.75;;;;;;;9.62;100.00;96017.38;4985505;28;20108;-60
2021/10/31 00:41:13;;;;;;;29.67;21.02;;;;;;;10.17;100.00;96003.22;4979666;28;20074;-57
2021/10/31 00:43:42;;;;;;;;;;;;;;;9.88;100.00;96009.56;4977230;28;20070;-60
2021/10/31 00:46:10;;;;;;;32.28;22.70;;;;;;;10.13;100.00;96015.84;4987449;28;20067;-61
2021/10/31 00:48:39;;;;;;;35.85;23.55;;;;;;;10.34;100.00;96017.38;4983597;28;20097;-59
2021/10/31 00:51:08;;;;;;;35.30;23.98;;;;;;;10.09;100.00;96024.22;4987095;28;20108;-60
2021/10/31 00:53:38;;;;;;;33.47;23.45;;;;;;;10.06;100.00;96033.25;4994717;28;20134;-57
2021/10/31 00:56:07;;;;;;;38.85;25.15;;;;;;;10.34;100.00;96014.72;4994654;28;20085;-61
2021/10/31 00:58:37;;;;;;;34.25;24.17;;;;;;;10.65;100.00;96004.53;5003848;28;20084;-61
2021/10/31 01:01:06;;;;;;;35.53;24.65;;;;;;;10.61;100.00;96011.13;5005591;28;20077;-60
2021/10/31 01:03:35;;;;;;;37.42;25.33;;;;;;;10.80;100.00;96013.50;5008576;28;20088;-61
2021/10/31 01:06:21;;;;;;;35.25;24.67;;;;;;;10.84;100.00;96003.47;5001790;28;20089;-58
2021/10/31 01:08:53;;;;;;;34.78;23.85;;;;;;;10.87;100.00;96003.16;4995575;28;20088;-61
2021/10/31 01:11:31;;;;;;;34.17;23.02;;;;;;;10.84;100.00;96006.97;4996774;28;20579;-59
2021/10/31 01:14:29;;;;;;;34.85;23.45;;;;;;;10.28;100.00;96012.69;5000133;28;20481;-60
2021/10/31 01:17:06;;;;;;;29.88;21.27;;;;;;;9.85;100.00;96020.41;4993662;28;20100;-62
2021/10/31 01:19:44;;;;;;;31.15;21.52;;;;;;;10.23;100.00;96019.22;4988753;28;20117;-59
2021/10/31 01:22:24;;;;;;;32.38;22.23;;;;;;;9.82;100.00;96022.50;5004075;28;20073;-60
2021/10/31 01:25:07;;;;;;;30.58;21.58;;;;;;;9.83;100.00;96017.06;5002469;28;20088;-60
2021/10/31 01:28:04;;;;;;;33.80;21.23;;;;;;;9.28;100.00;96019.81;5008498;28;20590;-58
2021/10/31 01:30:38;;;;;;;32.80;22.90;;;;;;;9.14;100.00;96015.88;5008541;28;20681;-61
2021/10/31 01:33:13;;;;;;;31.63;22.85;;;;;;;9.18;100.00;96003.25;5002729;28;20078;-56
2021/10/31 01:35:49;;;;;;;32.85;23.05;;;;;;;9.20;100.00;95999.50;4990939;28;20104;-57
2021/10/31 01:38:25;;;;;;;33.13;22.85;;;;;;;9.07;100.00;96004.28;5002435;28;20115;-61
2021/10/31 01:41:00;;;;;;;34.35;23.83;;;;;;;9.28;100.00;95998.75;4996198;28;20501;-59
2021/10/31 01:43:33;;;;;;;36.22;25.05;;;;;;;9.55;100.00;95997.06;5000208;28;20069;-60
2021/10/31 01:46:07;;;;;;;33.70;22.88;;;;;;;9.70;100.00;96000.81;5005208;28;20129;-58
2021/10/31 01:48:51;;;;;;;36.15;22.65;;;;;;;9.69;100.00;96004.44;5003897;28;20086;-60
2021/10/31 01:51:22;;;;;;;34.45;22.95;;;;;;;10.23;100.00;96006.06;5010018;28;20586;-57
2021/10/31 01:53:55;;;;;;;37.70;23.63;;;;;;;10.52;100.00;95996.22;5006085;28;20503;-59
2021/10/31 01:56:24;;;;;;;35.47;23.92;;;;;;;10.04;100.00;95998.31;5002192;28;20570;-60
2021/10/31 01:58:58;;;;;;;32.00;23.52;;;;;;;9.36;100.00;95998.00;5007957;28;20081;-58
2021/10/31 02:01:29;;;;;;;32.92;22.48;;;;;;;9.27;100.00;96011.09;5003604;28;20141;-61
2021/10/31 02:04:02;;;;;;;33.63;23.17;;;;;;;9.24;100.00;96006.13;5000097;28;20057;-59
2021/10/31 02:06:31;;;;;;;34.92;23.75;;;;;;;9.92;100.00;96005.66;5009589;28;20088;-61
2021/10/31 02:09:00;;;;;;;33.50;23.08;;;;;;;9.65;100.00;96011.00;5008389;28;20476;-59
2021/10/31 02:11:29;;;;;;;35.03;23.17;;;;;;;9.89;100.00;96005.13;4998035;28;20084;-59
2021/10/31 02:14:00;;;;;;;32.15;22.95;;;;;;;10.20;100.00;96005.53;4995055;28;20069;-59
2021/10/31 02:16:29;;;;;;;33.20;22.75;;;;;;;10.06;100.00;96009.53;4987179;28;20067;-61
2021/10/31 02:19:04;;;;;;;30.35;21.20;;;;;;;9.93;100.00;96007.28;4994073;28;20073;-60
2021/10/31 02:21:34;;;;;;;26.92;18.60;;;;;;;9.83;100.00;96011.00;4980450;28;20069;-59
2021/10/31 02:24:07;;;;;;;26.85;18.70;;;;;;;9.94;100.00;96002.84;4980713;28;20107;-59
2021/10/31 02:26:36;;;;;;;25.77;19.55;;;;;;;9.62;100.00;96013.91;4983761;28;20068;-61
2021/10/31 02:29:07;;;;;;;29.77;19.83;;;;;;;9.75;100.00;96004.66;4979378;28;20082;-60
2021/10/31 02:31:37;;;;;;;30.35;20.35;;;;;;;9.82;100.00;95996.19;4980650;28;20093;-61
2021/10/31 02:34:06;;;;;;;29.75;20.55;;;;;;;9.12;100.00;96009.09;4987281;28;20038;-61
2021/10/31 02:36:35;;;;;;;30.42;21.10;;;;;;;9.72;100.00;96006.78;4980635;28;20082;-58
2021/10/31 02:39:06;;;;;;;28.38;20.15;;;;;;;9.51;100.00;96005.25;4985715;28;20552;-57
2021/10/31 02:41:35;;;;;;;;;;;;;;;9.33;100.00;95993.06;4971257;28;20073;-60
2021/10/31 02:44:04;;;;;;;28.42;19.98;;;;;;;9.31;100.00;96001.09;4986066;28;20007;-59
2021/10/31 02:46:36;;;;;;;28.65;20.23;;;;;;;9.50;100.00;96010.69;4982933;28;20817;-58
2021/10/31 02:49:05;;;;;;;28.73;20.70;;;;;;;9.63;100.00;96003.22;4993272;28;20069;-61
2021/10/31 02:51:42;;;;;;;29.50;21.65;;;;;;;9.08;100.00;95995.41;4984804;28;20326;-59
2021/10/31 02:54:22;;;;;;;31.02;21.65;;;;;;;8.81;100.00;96004.16;5003328;28;20085;-60
2021/10/31 02:56:59;;;;;;;31.30;21.73;;;;;;;8.44;100.00;96004.13;5000543;28;20078;-59
2021/10/31 02:59:39;;;;;;;31.83;21.73;;;;;;;8.40;100.00;95989.63;4997498;28;20077;-57
2021/10/31 03:02:08;;;;;;;34.33;22.38;;;;;;;8.98;100.00;95998.13;5002670;28;20508;-60
2021/10/31 03:04:38;;;;;;;30.02;21.70;;;;;;;8.72;100.00;95997.94;5006725;28;20457;-60
2021/10/31 03:07:06;;;;;;;35.00;22.92;;;;;;;9.33;100.00;96006.22;5002525;28;20080;-60
2021/10/31 03:09:36;;;;;;;31.65;22.60;;;;;;;9.22;100.00;96013.34;4987460;28;20174;-61
2021/10/31 03:12:07;;;;;;;26.33;18.88;;;;;;;8.40;100.00;96005.38;4982461;28;20210;-57
2021/10/31 03:14:35;;;;;;;24.98;17.27;;;;;;;8.51;100.00;96007.84;4981789;28;20078;-60
2021/10/31 03:17:05;;;;;;;27.38;19.10;;;;;;;8.65;100.00;96004.75;4982174;28;20088;-59
2021/10/31 03:19:34;;;;;;;27.92;19.35;;;;;;;8.12;100.00;96021.03;4994494;28;20069;-58
2021/10/31 03:22:02;;;;;;;30.80;21.88;;;;;;;8.43;100.00;96032.22;5004699;28;20064;-57
2021/10/31 03:24:31;;;;;;;30.05;20.52;;;;;;;8.60;100.00;96024.53;5006181;28;20524;-58
2021/10/31 03:27:01;;;;;;;27.48;19.23;;;;;;;8.45;100.00;96029.44;5002298;28;20277;-58
2021/10/31 03:29:29;;;;;;;32.42;19.50;;;;;;;8.15;100.00;96033.84;5007453;28;20077;-58
2021/10/31 03:31:58;;;;;;;28.90;19.33;;;;;;;8.27;100.00;96045.06;4997809;28;20587;-60
2021/10/31 03:34:26;;;;;;;31.92;19.50;;;;;;;7.88;100.00;96042.47;4998117;28;20084;-58
2021/10/31 03:36:55;;;;;;;24.15;17.08;;;;;;;7.70;100.00;96036.22;4996543;28;20069;-61
2021/10/31 03:39:23;;;;;;;23.77;16.70;;;;;;;7.92;100.00;96033.34;4983855;28;20090;-57
2021/10/31 03:41:52;;;;;;;25.30;18.67;;;;;;;7.78;100.00;96034.59;4998848;28;20078;-59
2021/10/31 03:44:23;;;;;;;28.42;19.75;;;;;;;7.99;100.00;96038.88;4984582;28;20468;-60
2021/10/31 03:46:51;;;;;;;28.30;18.95;;;;;;;8.25;100.00;96034.66;4991526;28;20081;-60
2021/10/31 03:49:20;;;;;;;32.30;22.02;;;;;;;8.22;100.00;96032.31;4996164;28;20069;-59
2021/10/31 03:51:49;;;;;;;35.03;21.30;;;;;;;8.46;100.00;96031.06;4998317;28;20085;-60
2021/10/31 03:54:17;;;;;;;32.75;22.05;;;;;;;8.66;100.00;96016.91;4984477;28;20114;-57
2021/10/31 03:56:46;;;;;;;34.42;23.02;;;;;;;8.85;100.00;96016.03;4997849;28;20161;-59
2021/10/31 03:59:14;;;;;;;31.20;20.92;;;;;;;8.15;100.00;96015.47;4998312;28;20066;-60
2021/10/31 04:01:44;;;;;;;31.30;22.30;;;;;;;8.57;100.00;96007.28;5003472;28;20094;-59
2021/10/31 04:04:13;;;;;;;31.40;20.73;;;;;;;8.68;100.00;96006.25;5006424;28;20065;-59
2021/10/31 04:06:41;;;;;;;28.55;19.73;;;;;;;8.59;100.00;96001.88;4992104;28;20089;-59
2021/10/31 04:09:10;;;;;;;31.38;21.23;;;;;;;8.74;100.00;96003.03;4986043;28;20082;-59
2021/10/31 04:11:38;;;;;;;30.77;20.08;;;;;;;8.60;100.00;96003.50;4975717;28;20071;-58
2021/10/31 04:14:07;;;;;;;31.25;20.50;;;;;;;8.27;100.00;96003.84;4986676;28;20068;-61
2021/10/31 04:16:36;;;;;;;31.20;21.35;;;;;;;8.22;100.00;95999.97;4988189;28;20544;-61
2021/10/31 04:19:06;;;;;;;25.95;18.40;;;;;;;8.40;100.00;95997.50;4988251;28;20073;-60
2021/10/31 04:21:34;;;;;;;32.38;21.98;;;;;;;8.06;100.00;96005.84;4978640;28;20093;-61
2021/10/31 04:24:03;;;;;;;27.63;19.38;;;;;;;7.83;100.00;95997.41;5011602;28;20097;-59
2021/10/31 04:26:31;;;;;;;29.25;19.92;;;;;;;7.45;100.00;95998.22;4996673;28;20065;-61
2021/10/31 04:29:00;;;;;;;29.35;20.35;;;;;;;7.30;100.00;95995.19;5009942;28;20081;-55
2021/10/31 04:31:28;;;;;;;28.88;18.92;;;;;;;7.01;100.00;95993.31;5002254;28;20089;-61
2021/10/31 04:33:57;;;;;;;29.63;19.10;;;;;;;6.87;100.00;95993.69;4987267;28;20073;-58
2021/10/31 04:36:27;;;;;;;27.80;19.92;;;;;;;7.29;100.00;95993.50;4992560;28;20085;-58
2021/10/31 04:38:56;;;;;;;27.27;19.65;;;;;;;7.50;100.00;95985.53;4996093;28;20081;-57
2021/10/31 04:41:26;;;;;;;30.92;21.02;;;;;;;7.54;100.00;95981.69;4982529;28;20524;-59
2021/10/31 04:43:55;;;;;;;;;;;;;;;7.72;100.00;95974.78;4990106;28;20484;-58
2021/10/31 04:46:23;;;;;;;28.85;19.17;;;;;;;7.37;100.00;95986.63;4987941;28;19964;-60
2021/10/31 04:48:52;;;;;;;30.90;20.38;;;;;;;7.33;100.00;95966.06;4991776;28;20081;-59
2021/10/31 04:51:20;;;;;;;27.48;18.27;;;;;;;7.42;100.00;95975.72;5012236;28;20085;-57
2021/10/31 04:53:50;;;;;;;27.77;18.38;;;;;;;7.41;100.00;95981.94;5001074;28;20492;-57
2021/10/31 04:56:22;;;;;;;30.15;18.85;;;;;;;7.70;100.00;95968.00;5005647;28;20069;-58
2021/10/31 04:58:51;;;;;;;25.48;17.90;;;;;;;7.45;100.00;95979.88;4983399;28;20624;-59
2021/10/31 05:01:20;;;;;;;36.10;18.58;;;;;;;7.34;100.00;95973.78;4990402;28;20062;-59
2021/10/31 05:03:49;;;;;;;23.50;17.65;;;;;;;7.33;100.00;95963.44;4992899;28;20108;-60
2021/10/31 05:06:18;;;;;;;25.45;17.92;;;;;;;7.30;100.00;95956.69;4986147;28;20114;-57
2021/10/31 05:08:46;;;;;;;25.83;18.98;;;;;;;7.60;100.00;95952.25;4983984;28;20112;-59
2021/10/31 05:11:16;;;;;;;59.30;19.58;;;;;;;7.52;100.00;95960.00;4997326;28;20073;-60
2021/10/31 05:13:44;;;;;;;64.97;19.38;;;;;;;7.61;100.00;95956.56;4984401;28;20078;-60
2021/10/31 05:16:14;;;;;;;47.15;19.65;;;;;;;7.56;100.00;95953.50;4982814;28;20069;-59
2021/10/31 05:18:42;;;;;;;62.67;21.57;;;;;;;7.79;100.00;95954.88;4984915;28;20631;-60
2021/10/31 05:21:11;;;;;;;86.70;20.63;;;;;;;7.58;100.00;95952.41;5011925;28;20456;-60
2021/10/31 05:23:39;;;;;;;65.43;20.77;;;;;;;7.30;100.00;95956.69;5001922;28;20073;-60
2021/10/31 05:26:08;;;;;;;56.75;18.92;;;;;;;7.72;100.00;95940.66;5002877;28;20327;-61
2021/10/31 05:28:38;;;;;;;94.75;18.05;;;;;;;7.68;100.00;95948.94;5000496;28;20065;-61
2021/10/31 05:31:06;;;;;;;107.68;21.13;;;;;;;7.81;100.00;95947.69;5008749;28;20145;-59
2021/10/31 05:33:35;;;;;;;31.00;16.50;;;;;;;7.84;100.00;95944.78;5007576;28;20096;-60
2021/10/31 05:36:04;;;;;;;59.55;16.35;;;;;;;7.42;100.00;95944.25;5013750;28;20081;-61
2021/10/31 05:38:32;;;;;;;30.33;14.18;;;;;;;7.56;100.00;95929.88;5012999;28;20566;-60
2021/10/31 05:41:03;;;;;;;30.95;15.70;;;;;;;7.56;100.00;95932.50;4996553;28;20100;-58
2021/10/31 05:43:31;;;;;;;18.38;15.55;;;;;;;7.72;100.00;95931.94;4997496;28;20077;-60
2021/10/31 05:46:01;;;;;;;19.08;15.75;;;;;;;6.97;100.00;95942.13;5009770;28;20062;-59
2021/10/31 05:48:30;;;;;;;17.95;15.05;;;;;;;7.41;100.00;95936.53;5011023;28;20081;-57
2021/10/31 05:50:58;;;;;;;18.40;15.25;;;;;;;7.74;100.00;95920.34;4995296;28;20109;-60
2021/10/31 05:53:30;;;;;;;19.40;15.35;;;;;;;7.73;100.00;95931.81;5008170;28;20072;-60
2021/10/31 05:55:58;;;;;;;18.02;14.93;;;;;;;7.34;100.00;95929.19;4994936;28;20085;-59
2021/10/31 05:58:27;;;;;;;18.33;14.98;;;;;;;7.84;100.00;95931.66;4995121;28;20073;-60
2021/10/31 06:00:55;;;;;;;18.23;14.63;;;;;;;7.73;100.00;95936.22;5004989;28;20076;-58
2021/10/31 06:03:25;;;;;;;22.40;15.30;;;;;;;7.64;100.00;95943.16;4984333;28;20074;-60
2021/10/31 06:05:54;;;;;;;23.42;13.27;;;;;;;7.55;100.00;95954.47;4998263;28;20093;-61
2021/10/31 06:08:22;;;;;;;36.55;13.68;;;;;;;7.52;100.00;95942.44;4995445;28;20069;-59
2021/10/31 06:10:52;;;;;;;81.95;16.52;;;;;;;7.20;100.00;95953.22;4988141;28;20542;-60
2021/10/31 06:13:35;;;;;;;32.97;17.30;;;;;;;6.80;100.00;95948.84;4982403;28;20063;-58
2021/10/31 06:16:06;;;;;;;56.80;13.70;;;;;;;7.52;100.00;95939.00;4985879;28;20061;-58
2021/10/31 06:18:37;;;;;;;68.68;16.58;;;;;;;7.44;100.00;95939.69;5003668;28;20477;-58
2021/10/31 06:21:05;;;;;;;42.65;14.52;;;;;;;7.44;100.00;95944.94;4991369;28;20089;-58
2021/10/31 06:23:34;;;;;;;51.67;15.52;;;;;;;7.13;100.00;95946.84;4992405;28;20076;-60
2021/10/31 06:26:04;;;;;;;95.82;15.60;;;;;;;7.02;100.00;95946.94;5003140;28;20116;-58
2021/10/31 06:28:33;;;;;;;34.22;15.70;;;;;;;7.70;100.00;95936.50;4993255;28;20804;-60
2021/10/31 06:31:02;;;;;;;22.20;15.32;;;;;;;7.78;100.00;95937.47;4988586;28;20069;-59
2021/10/31 06:33:31;;;;;;;16.97;14.57;;;;;;;7.63;100.00;95932.78;4992958;28;20062;-59
2021/10/31 06:36:01;;;;;;;18.35;15.13;;;;;;;7.77;100.00;95929.72;5008518;28;20488;-60
2021/10/31 06:38:30;;;;;;;17.55;14.18;;;;;;;8.03;100.00;95929.97;5001015;28;20066;-60
2021/10/31 06:40:59;;;;;;;17.45;14.90;;;;;;;8.24;100.00;95929.75;5007800;28;20072;-61
2021/10/31 06:43:28;;;;;;;19.33;15.70;;;;;;;8.26;100.00;95930.47;4990575;28;20430;-60
2021/10/31 06:45:56;;;;;;;34.45;16.15;;;;;;;8.38;100.00;95931.97;4992662;28;20073;-59
2021/10/31 06:48:26;;;;;;;27.80;16.13;;;;;;;8.43;100.00;95932.38;4980857;28;20457;-59
2021/10/31 06:50:56;;;;;;;18.40;15.25;;;;;;;8.00;100.00;95932.88;4978077;28;20070;-60
2021/10/31 06:53:26;;;;;;;19.67;15.52;;;;;;;8.42;100.00;95928.06;4988552;28;20952;-60
2021/10/31 06:55:55;;;;;;;19.40;15.07;;;;;;;8.52;100.00;95930.66;5005863;28;20073;-60
2021/10/31 06:58:23;;;;;;;16.60;13.85;;;;;;;8.75;100.00;95936.38;4993369;28;20073;-59
2021/10/31 07:00:52;;;;;;;17.48;14.65;;;;;;;8.41;100.00;95933.47;4977563;28;20070;-59
2021/10/31 07:03:21;;;;;;;17.33;14.52;;;;;;;8.79;100.00;95925.41;5004277;28;20436;-58
2021/10/31 07:05:49;;;;;;;17.30;14.60;;;;;;;8.97;100.00;95937.75;5001301;28;20691;-58
2021/10/31 07:08:17;;;;;;;19.27;14.70;;;;;;;9.28;100.00;95935.63;4990281;28;20112;-60
2021/10/31 07:10:47;;;;;;;19.63;15.57;;;;;;;9.16;100.00;95942.91;5000363;28;20073;-61
2021/10/31 07:13:16;;;;;;;19.77;15.48;;;;;;;9.00;100.00;95935.66;4993485;28;20062;-61
2021/10/31 07:15:44;;;;;;;20.25;15.98;;;;;;;9.31;100.00;95945.84;5003346;28;20050;-60
2021/10/31 07:18:13;;;;;;;21.05;16.08;;;;;;;9.48;100.00;95939.75;5005751;28;20074;-60
2021/10/31 07:20:41;;;;;;;21.98;18.08;;;;;;;9.41;100.00;95936.09;5003167;28;20547;-59
2021/10/31 07:23:10;;;;;;;22.75;18.10;;;;;;;9.46;100.00;95940.88;4984272;28;20100;-55
2021/10/31 07:25:41;;;;;;;27.60;21.20;;;;;;;9.69;100.00;95925.47;4983439;28;20054;-60
2021/10/31 07:28:11;;;;;;;30.30;21.17;;;;;;;9.80;100.00;95924.41;5014325;28;20062;-57
2021/10/31 07:30:39;;;;;;;30.88;22.15;;;;;;;9.97;100.00;95921.72;5007269;28;20548;-57
2021/10/31 07:33:08;;;;;;;30.85;22.55;;;;;;;9.82;100.00;95919.81;5002021;28;20082;-61
2021/10/31 07:35:37;;;;;;;32.78;23.40;;;;;;;10.33;100.00;95912.94;4998057;28;20074;-61
2021/10/31 07:38:06;;;;;;;29.15;21.75;;;;;;;10.47;100.00;95911.53;5000053;28;20076;-59
2021/10/31 07:40:35;;;;;;;29.35;22.20;;;;;;;10.66;100.00;95912.09;4987358;28;20520;-59
2021/10/31 07:43:04;;;;;;;30.50;22.08;;;;;;;10.98;100.00;95907.94;4983581;28;20638;-60
2021/10/31 07:45:41;;;;;;;28.35;22.00;;;;;;;11.16;100.00;95911.25;4985071;28;20105;-59
2021/10/31 07:48:10;;;;;;;33.25;21.83;;;;;;;11.45;100.00;95912.63;4991672;28;20082;-59
2021/10/31 07:50:39;;;;;;;29.35;21.65;;;;;;;11.45;100.00;95906.53;4990401;28;20096;-56
2021/10/31 07:53:08;;;;;;;30.48;22.40;;;;;;;11.88;100.00;95908.06;4978552;28;20089;-59
2021/10/31 07:55:38;;;;;;;25.67;20.55;;;;;;;12.13;100.00;95906.22;4987454;28;20471;-58
2021/10/31 07:58:07;;;;;;;27.60;21.05;;;;;;;12.30;100.00;95905.19;4997423;28;20070;-62
2021/10/31 08:00:36;;;;;;;26.75;20.48;;;;;;;12.40;100.00;95899.72;5008293;28;20509;-59
2021/10/31 08:03:07;;;;;;;26.60;20.73;;;;;;;12.64;100.00;95901.44;5009858;28;20092;-58
2021/10/31 08:05:35;;;;;;;28.45;21.15;;;;;;;12.90;100.00;95895.03;5010060;28;20077;-59
2021/10/31 08:08:04;;;;;;;28.23;20.60;;;;;;;13.02;100.00;95891.03;5010798;28;20069;-59
2021/10/31 08:10:33;;;;;;;25.75;19.88;;;;;;;13.13;100.00;95892.44;5001449;28;20480;-60
2021/10/31 08:13:02;;;;;;;24.42;19.70;;;;;;;13.35;100.00;95885.56;4999804;28;20070;-57
2021/10/31 08:15:30;;;;;;;26.80;19.52;;;;;;;13.49;100.00;95871.56;5007137;28;20558;-61
2021/10/31 08:17:59;;;;;;;24.67;19.20;;;;;;;13.69;100.00;95875.34;5009026;28;21194;-60
2021/10/31 08:20:29;;;;;;;24.83;18.55;;;;;;;13.71;100.00;95870.72;5010097;28;20076;-59
2021/10/31 08:22:58;;;;;;;25.65;18.38;;;;;;;13.92;100.00;95874.50;5008924;28;20824;-61
2021/10/31 08:25:26;;;;;;;21.27;16.90;;;;;;;14.18;100.00;95874.13;5006994;28;20066;-59
2021/10/31 08:27:56;;;;;;;21.95;16.30;;;;;;;14.40;100.00;95862.59;5009964;28;20445;-59
2021/10/31 08:30:30;;;;;;;19.33;14.85;;;;;;;13.97;100.00;95861.53;5011350;28;20090;-61
2021/10/31 08:33:05;;;;;;;17.95;14.50;;;;;;;13.21;100.00;95863.28;5008433;28;20434;-60
2021/10/31 08:35:35;;;;;;;18.15;14.32;;;;;;;13.72;100.00;95858.28;5001689;28;20109;-60
2021/10/31 08:38:04;;;;;;;19.00;15.13;;;;;;;13.77;100.00;95856.75;5009478;28;20072;-61
2021/10/31 08:40:33;;;;;;;19.02;14.73;;;;;;;14.08;100.00;95853.16;5009422;28;20092;-60
2021/10/31 08:43:02;;;;;;;18.05;15.55;;;;;;;13.58;100.00;95857.25;5015476;28;20089;-57
2021/10/31 08:45:31;;;;;;;19.45;15.32;;;;;;;14.35;100.00;95845.56;5007599;28;20081;-61
2021/10/31 08:47:59;;;;;;;18.60;13.85;;;;;;;14.45;100.00;95848.75;4985173;28;20326;-61
2021/10/31 08:50:28;;;;;;;17.05;13.63;;;;;;;14.51;100.00;95840.09;5004660;28;20069;-59
2021/10/31 08:52:58;;;;;;;16.13;12.70;;;;;;;14.26;100.00;95839.53;5002834;28;20065;-59
2021/10/31 08:55:26;;;;;;;14.57;12.07;;;;;;;14.37;100.00;95835.59;4999395;28;20452;-60
2021/10/31 08:57:55;;;;;;;15.98;12.50;;;;;;;14.62;100.00;95830.84;5008924;28;20073;-61
2021/10/31 09:00:23;;;;;;;15.70;13.30;;;;;;;15.50;100.00;95828.94;5002616;28;20093;-57
2021/10/31 09:02:52;;;;;;;18.25;13.75;;;;;;;15.32;100.00;95822.25;5008530;28;20142;-59
2021/10/31 09:05:21;;;;;;;17.30;12.93;;;;;;;15.14;100.00;95812.06;5008606;28;20426;-58
2021/10/31 09:07:50;;;;;;;16.15;13.15;;;;;;;14.85;100.00;95807.66;5009227;28;20073;-60
2021/10/31 09:10:20;;;;;;;14.23;12.25;;;;;;;14.81;100.00;95803.72;4999836;28;20065;-58
2021/10/31 09:12:49;;;;;;;14.38;11.80;;;;;;;15.53;100.00;95794.03;5004092;28;20112;-59
2021/10/31 09:15:17;;;;;;;13.10;10.57;;;;;;;15.01;100.00;95785.38;4988120;28;20090;-58
2021/10/31 09:17:47;;;;;;;11.68;8.95;;;;;;;14.97;100.00;95781.47;4978976;28;20089;-63
2021/10/31 09:20:15;;;;;;;13.10;9.50;;;;;;;15.87;100.00;95787.97;4987398;28;20058;-57
2021/10/31 09:22:45;;;;;;;12.52;10.25;;;;;;;15.43;100.00;95778.41;4991634;28;20080;-60
2021/10/31 09:25:14;;;;;;;13.80;11.13;;;;;;;16.11;100.00;95766.25;5004802;28;20070;-60
2021/10/31 09:27:44;;;;;;;13.25;11.23;;;;;;;16.33;100.00;95758.16;4983236;28;20109;-61
2021/10/31 09:30:13;;;;;;;14.05;11.30;;;;;;;16.52;100.00;95765.41;4980605;28;20077;-62
2021/10/31 09:32:48;;;;;;;13.07;11.25;;;;;;;16.88;100.00;95760.84;4986126;28;20529;-61
2021/10/31 09:35:19;;;;;;;15.00;11.25;;;;;;;16.61;100.00;95760.72;4976545;28;20072;-61
2021/10/31 09:37:51;;;;;;;13.73;11.52;;;;;;;16.52;100.00;95756.63;4983299;28;20071;-60
2021/10/31 09:40:19;;;;;;;13.32;10.90;;;;;;;17.24;100.00;95748.00;4988998;28;20072;-61
2021/10/31 09:42:51;;;;;;;13.90;10.77;;;;;;;17.55;100.00;95743.94;4981649;28;20097;-61
2021/10/31 09:45:21;;;;;;;13.50;9.60;;;;;;;16.74;100.00;95749.31;4978470;28;20479;-63
2021/10/31 09:47:54;;;;;;;11.82;9.98;;;;;;;16.58;100.00;95745.97;4982719;28;20630;-59
2021/10/31 09:50:22;;;;;;;12.23;9.88;;;;;;;16.69;100.00;95733.94;4997813;28;20073;-61
2021/10/31 09:52:51;;;;;;;10.32;9.00;;;;;;;16.76;100.00;95739.31;4999261;28;20073;-61
2021/10/31 09:55:20;;;;;;;10.48;9.07;;;;;;;17.24;100.00;95729.38;4993607;28;20092;-59
2021/10/31 09:57:50;;;;;;;16.63;9.88;;;;;;;17.61;100.00;95724.41;4995160;28;20085;-61
2021/10/31 10:00:20;;;;;;;13.63;9.55;;;;;;;17.21;100.00;95718.28;4990793;28;20082;-63
2021/10/31 10:03:01;;;;;;;11.57;9.52;;;;;;;17.64;100.00;95713.34;4988843;28;20077;-57
2021/10/31 10:05:31;;;;;;;10.05;8.07;;;;;;;18.12;100.00;95707.72;4995835;28;20081;-60
2021/10/31 10:08:10;;;;;;;10.55;8.77;;;;;;;17.85;100.00;95704.31;4999324;28;20069;-59
2021/10/31 10:10:47;;;;;;;12.45;9.00;;;;;;;18.04;100.00;95699.97;5003262;28;20092;-60
2021/10/31 10:13:22;;;;;;;10.15;8.27;;;;;;;17.96;100.00;95694.84;4988395;28;20469;-60
2021/10/31 10:15:51;;;;;;;9.07;7.90;;;;;;;18.10;100.00;95693.81;4996057;28;20088;-57
2021/10/31 10:18:30;;;;;;;9.27;7.90;;;;;;;18.23;95.58;95691.06;5007466;28;20081;-60
2021/10/31 10:21:14;;;;;;;8.95;7.03;;;;;;;17.98;97.12;95684.78;5001202;28;20295;-61
2021/10/31 10:23:51;;;;;;;10.27;7.20;;;;;;;17.91;94.89;95684.81;5009160;28;20078;-59
2021/10/31 10:26:31;;;;;;;8.98;7.38;;;;;;;17.71;90.69;95676.00;5013290;28;20084;-62
2021/10/31 10:29:12;;;;;;;9.30;7.00;;;;;;;17.50;93.38;95671.72;4994810;28;20069;-59
2021/10/31 10:31:42;;;;;;;9.00;7.38;;;;;;;18.06;89.84;95679.22;4993546;28;20078;-61
2021/10/31 10:34:11;;;;;;;9.80;7.63;;;;;;;18.20;84.10;95678.16;4998593;28;20069;-60
2021/10/31 10:36:42;;;;;;;10.20;7.70;;;;;;;18.32;83.41;95664.16;5000913;28;20085;-60
2021/10/31 10:39:11;;;;;;;;;;;;;;;18.62;87.77;95662.56;4981585;28;20092;-62
2021/10/31 10:41:41;;;;;;;10.82;8.48;;;;;;;18.56;84.40;95663.41;5005869;28;19995;-61
2021/10/31 10:44:29;;;;;;;11.27;8.48;;;;;;;18.52;81.36;95656.84;4993981;28;20493;-60
2021/10/31 10:47:00;;;;;;;11.57;9.07;;;;;;;18.98;79.82;95647.75;4981536;28;20084;-60
2021/10/31 10:49:33;;;;;;;10.77;9.10;;;;;;;19.29;80.22;95651.41;4985832;28;20066;-62
2021/10/31 10:52:20;;;;;;;12.77;10.57;;;;;;;18.61;84.13;95638.72;4997593;28;20058;-61
2021/10/31 10:55:12;;;;;;;14.00;10.95;;;;;;;19.01;79.65;95638.50;4974566;28;20530;-60
2021/10/31 10:57:42;;;;;;;15.43;11.50;;;;;;;19.23;78.22;95629.03;4981840;28;20094;-60
2021/10/31 11:00:17;;;;;;;15.20;11.43;;;;;;;18.56;81.77;95617.19;4977529;28;20077;-58
2021/10/31 11:02:46;;;;;;;14.82;11.88;;;;;;;19.01;76.99;95617.13;4993016;28;20076;-62
2021/10/31 11:05:19;;;;;;;15.60;11.30;;;;;;;19.45;78.07;95622.25;5006389;28;20081;-58
2021/10/31 11:07:49;;;;;;;15.70;11.77;;;;;;;19.57;77.91;95614.31;4997065;28;20066;-58
2021/10/31 11:10:23;;;;;;;16.30;11.63;;;;;;;19.44;75.17;95611.78;4997539;28;20073;-61
2021/10/31 11:12:53;;;;;;;14.80;11.02;;;;;;;19.58;73.88;95601.75;5006939;28;20081;-59
2021/10/31 11:15:24;;;;;;;14.05;9.95;;;;;;;19.38;70.85;95592.09;5012982;28;20080;-59
2021/10/31 11:17:55;;;;;;;11.52;9.32;;;;;;;19.19;66.34;95582.41;5006549;28;20421;-59
2021/10/31 11:20:25;;;;;;;11.45;9.68;;;;;;;19.20;68.12;95579.53;5004921;28;20064;-59
2021/10/31 11:22:54;;;;;;;;;;;;;;;19.47;68.12;95557.84;5007547;28;20069;-61
2021/10/31 11:25:24;;;;;;;12.15;9.05;;;;;;;19.07;67.76;95570.81;5001741;28;19952;-60
2021/10/31 11:27:53;;;;;;;8.73;7.53;;;;;;;19.06;67.20;95564.63;5005913;28;20554;-59
2021/10/31 11:30:24;;;;;;;15.90;10.55;;;;;;;19.43;71.31;95554.81;4997179;28;20432;-57
2021/10/31 11:32:55;;;;;;;11.88;9.40;;;;;;;19.29;65.66;95544.47;5006789;28;20626;-59